Time;durP1;ratioP1;P1;durP2;ratioP2;P2;SDS_P1;SDS_P2;PMS_P1;PMS_P2;Temp;Humidity;BMP_temperature;BMP_pressure;BME280_temperature;BME280_humidity;BME280_pressure;Samples;Min_cycle;Max_cycle;Signal;HPM_P1;HPM_P2
2023/12/10 00:02:08;;;;;;;19.92;3.28;;;9.20;99.90;;;;;;7342788;32;20138;-57
2023/12/10 00:06:10;;;;;;;21.27;3.45;;;9.10;99.90;;;;;;7347446;32;20099;-57
2023/12/10 00:10:15;;;;;;;26.65;3.85;;;9.10;99.90;;;;;;7346430;32;20186;-56
2023/12/10 00:14:17;;;;;;;19.33;3.37;;;9.10;99.90;;;;;;7349808;32;20152;-57
2023/12/10 00:18:19;;;;;;;30.85;3.70;;;9.10;99.90;;;;;;7347348;32;20255;-56
2023/12/10 00:22:22;;;;;;;22.55;3.45;;;9.20;99.90;;;;;;7349924;32;20134;-55
2023/12/10 00:26:24;;;;;;;23.90;2.92;;;9.10;99.90;;;;;;7347001;32;20228;-55
2023/12/10 00:30:26;;;;;;;34.50;4.30;;;9.20;99.90;;;;;;7349762;32;20112;-56
2023/12/10 00:34:27;;;;;;;30.42;5.28;;;9.10;99.90;;;;;;7350993;32;20624;-55
2023/12/10 00:38:30;;;;;;;17.15;4.15;;;9.20;99.90;;;;;;7347336;32;20174;-56
2023/12/10 00:42:32;;;;;;;23.67;3.80;;;9.10;99.90;;;;;;7346402;32;20293;-58
2023/12/10 00:46:34;;;;;;;22.75;3.50;;;9.20;99.90;;;;;;7348149;32;20174;-55
2023/12/10 00:50:36;;;;;;;26.25;4.15;;;9.20;99.90;;;;;;7346382;32;20107;-54
2023/12/10 00:54:37;;;;;;;23.92;4.05;;;9.20;99.90;;;;;;7347339;32;20137;-55
2023/12/10 00:58:40;;;;;;;23.30;3.58;;;9.20;99.90;;;;;;7348150;32;20111;-55
2023/12/10 01:02:42;;;;;;;22.52;2.80;;;9.20;99.90;;;;;;7346174;32;20198;-56
2023/12/10 01:06:46;;;;;;;22.27;3.35;;;9.20;99.90;;;;;;7342494;32;20111;-56
2023/12/10 01:10:48;;;;;;;27.08;3.97;;;9.20;99.90;;;;;;7346219;32;20494;-56
2023/12/10 01:14:50;;;;;;;23.50;3.47;;;9.20;99.90;;;;;;7348147;32;20112;-55
2023/12/10 01:18:53;;;;;;;20.20;3.47;;;9.30;99.90;;;;;;7343346;32;20507;-55
2023/12/10 01:22:55;;;;;;;27.00;3.83;;;9.30;99.90;;;;;;7342915;32;20138;-55
2023/12/10 01:26:56;;;;;;;32.33;3.60;;;9.30;99.90;;;;;;7352296;32;20225;-56
2023/12/10 01:30:58;;;;;;;24.00;3.60;;;9.30;99.90;;;;;;7346957;32;20259;-58
2023/12/10 01:35:00;;;;;;;25.67;3.80;;;9.30;99.90;;;;;;7350323;32;20155;-55
2023/12/10 01:39:03;;;;;;;28.75;4.37;;;9.30;99.90;;;;;;7347447;32;20202;-55
2023/12/10 01:43:06;;;;;;;23.23;3.80;;;9.30;99.90;;;;;;7348070;32;20111;-57
2023/12/10 01:47:10;;;;;;;26.52;4.03;;;9.30;99.90;;;;;;7353049;32;20135;-56
2023/12/10 01:51:13;;;;;;;31.23;3.20;;;9.30;99.90;;;;;;7347211;32;20300;-55
2023/12/10 01:55:16;;;;;;;26.92;3.80;;;9.40;99.90;;;;;;7352209;32;20133;-55
2023/12/10 01:59:19;;;;;;;27.42;3.53;;;9.40;99.90;;;;;;7349878;32;20238;-57
2023/12/10 02:03:21;;;;;;;27.67;3.87;;;9.40;99.90;;;;;;7351495;32;20154;-55
2023/12/10 02:07:23;;;;;;;22.73;3.47;;;9.30;99.90;;;;;;7349921;32;20116;-56
2023/12/10 02:11:25;;;;;;;20.90;4.18;;;9.40;99.90;;;;;;7351835;32;20246;-55
2023/12/10 02:15:28;;;;;;;20.08;3.42;;;9.40;99.90;;;;;;7345479;32;20304;-55
2023/12/10 02:19:31;;;;;;;23.48;3.62;;;9.30;99.90;;;;;;7350680;32;20131;-56
2023/12/10 02:23:59;;;;;;;20.98;3.58;;;9.10;99.90;;;;;;7349041;32;20130;-55
2023/12/10 02:28:02;;;;;;;23.83;3.72;;;9.00;99.90;;;;;;7348594;32;20209;-56
2023/12/10 02:32:05;;;;;;;21.37;3.65;;;8.90;99.90;;;;;;7348354;32;20633;-55
2023/12/10 02:36:07;;;;;;;30.05;3.37;;;9.00;99.90;;;;;;7353181;32;20125;-55
2023/12/10 02:40:10;;;;;;;17.52;2.62;;;9.00;99.90;;;;;;7346693;32;20134;-57
2023/12/10 02:44:12;;;;;;;20.95;3.08;;;9.00;99.90;;;;;;7349515;32;20210;-56
2023/12/10 02:48:14;;;;;;;21.15;3.20;;;9.10;99.90;;;;;;7348022;32;20163;-55
2023/12/10 02:52:16;;;;;;;24.30;3.05;;;9.10;99.90;;;;;;7346682;32;20134;-55
2023/12/10 02:56:18;;;;;;;19.30;2.97;;;9.10;99.90;;;;;;7348743;32;20142;-56
2023/12/10 03:00:20;;;;;;;20.77;2.83;;;9.10;99.90;;;;;;7343790;32;20095;-55
2023/12/10 03:04:21;;;;;;;9.18;1.98;;;9.10;99.90;;;;;;7347112;32;20214;-56
2023/12/10 03:08:23;;;;;;;19.83;2.20;;;9.10;99.90;;;;;;7345477;32;20461;-55
2023/12/10 03:12:25;;;;;;;19.10;2.72;;;9.10;99.90;;;;;;7332899;32;20406;-56
2023/12/10 03:16:28;;;;;;;19.05;3.00;;;9.10;99.90;;;;;;7349406;32;20096;-57
2023/12/10 03:20:29;;;;;;;15.05;2.17;;;9.00;99.90;;;;;;7349871;32;20512;-55
2023/12/10 03:24:31;;;;;;;23.80;2.70;;;8.90;99.90;;;;;;7342720;32;20229;-54
2023/12/10 03:28:33;;;;;;;16.25;1.67;;;8.90;99.90;;;;;;7346607;32;20281;-54
2023/12/10 03:32:35;;;;;;;24.52;2.60;;;8.90;99.90;;;;;;7344769;32;20111;-54
2023/12/10 03:36:37;;;;;;;15.43;1.77;;;8.80;99.90;;;;;;7349631;32;20125;-55
2023/12/10 03:40:39;;;;;;;18.67;2.22;;;8.70;99.90;;;;;;7343463;32;20167;-56
2023/12/10 03:44:41;;;;;;;15.85;2.25;;;8.60;99.90;;;;;;7342969;32;20128;-55
2023/12/10 03:48:42;;;;;;;17.75;2.72;;;8.40;99.90;;;;;;7346776;32;20633;-55
2023/12/10 03:52:44;;;;;;;18.85;3.10;;;8.40;99.90;;;;;;7348390;32;20221;-56
2023/12/10 03:56:46;;;;;;;21.67;2.72;;;8.20;99.90;;;;;;7347983;32;20137;-55
2023/12/10 04:00:48;;;;;;;23.98;3.03;;;8.20;99.90;;;;;;7343418;32;20519;-56
2023/12/10 04:04:50;;;;;;;22.20;2.85;;;8.10;99.90;;;;;;7346747;32;20103;-55
2023/12/10 04:08:51;;;;;;;17.50;2.62;;;8.10;99.90;;;;;;7343222;32;20158;-55
2023/12/10 04:12:53;;;;;;;20.45;2.87;;;8.00;99.90;;;;;;7347322;32;20528;-55
2023/12/10 04:16:55;;;;;;;18.23;2.47;;;8.00;99.90;;;;;;7345518;32;20111;-54
2023/12/10 04:20:57;;;;;;;18.73;2.65;;;7.90;99.90;;;;;;7345077;32;20226;-57
2023/12/10 04:24:59;;;;;;;17.52;2.87;;;7.90;99.90;;;;;;7349962;32;20774;-58
2023/12/10 04:29:00;;;;;;;24.73;2.60;;;7.90;99.90;;;;;;7340901;32;20115;-55
2023/12/10 04:33:04;;;;;;;17.95;2.67;;;7.90;99.90;;;;;;7347870;32;20099;-54
2023/12/10 04:37:06;;;;;;;14.60;3.53;;;7.90;99.90;;;;;;7346517;32;20226;-57
2023/12/10 04:41:08;;;;;;;15.25;1.98;;;8.00;99.90;;;;;;7343052;32;20183;-57
2023/12/10 04:45:10;;;;;;;17.55;3.12;;;8.00;99.90;;;;;;7346487;32;20125;-56
2023/12/10 04:49:11;;;;;;;13.40;2.00;;;8.00;99.90;;;;;;7346595;32;20221;-57
2023/12/10 04:53:13;;;;;;;13.88;2.40;;;8.10;99.90;;;;;;7344712;32;20143;-54
2023/12/10 04:57:15;;;;;;;23.98;3.12;;;8.20;99.90;;;;;;7344871;32;20139;-55
2023/12/10 05:01:17;;;;;;;17.77;2.45;;;8.30;99.90;;;;;;7349690;32;20148;-55
2023/12/10 05:05:19;;;;;;;15.98;2.28;;;8.30;99.90;;;;;;7353007;32;20143;-56
2023/12/10 05:09:21;;;;;;;17.77;2.22;;;8.40;99.90;;;;;;7350154;32;20149;-56
2023/12/10 05:13:22;;;;;;;19.45;2.67;;;8.40;99.90;;;;;;7345884;32;20167;-55
2023/12/10 05:17:24;;;;;;;16.73;2.90;;;8.50;99.90;;;;;;7351863;32;20224;-54
2023/12/10 05:21:26;;;;;;;16.65;2.97;;;8.60;99.90;;;;;;7345670;32;20153;-55
2023/12/10 05:25:28;;;;;;;20.92;2.30;;;8.60;99.90;;;;;;7349183;32;20107;-57
2023/12/10 05:29:30;;;;;;;20.45;2.45;;;8.70;99.90;;;;;;7352959;32;20333;-56
2023/12/10 05:33:32;;;;;;;15.88;2.47;;;8.70;99.90;;;;;;7352218;32;20465;-56
2023/12/10 05:37:34;;;;;;;20.00;3.20;;;8.70;99.90;;;;;;7348398;32;20103;-55
2023/12/10 05:41:36;;;;;;;14.63;1.87;;;8.70;99.90;;;;;;7351297;32;20157;-55
2023/12/10 05:45:38;;;;;;;16.45;2.00;;;8.80;99.90;;;;;;7345367;32;20110;-55
2023/12/10 05:49:39;;;;;;;21.45;2.40;;;8.80;99.90;;;;;;7344578;32;20305;-56
2023/12/10 05:53:41;;;;;;;16.25;2.30;;;8.80;99.90;;;;;;7345540;32;20111;-56
2023/12/10 05:57:43;;;;;;;14.13;2.08;;;8.90;99.90;;;;;;7347195;32;20131;-55
2023/12/10 06:01:45;;;;;;;20.62;2.70;;;9.00;99.90;;;;;;7350276;32;20162;-55
2023/12/10 06:05:47;;;;;;;9.07;1.85;;;9.00;99.90;;;;;;7348266;32;20492;-57
2023/12/10 06:09:48;;;;;;;13.30;2.15;;;8.90;99.90;;;;;;7347401;32;20245;-55
2023/12/10 06:13:50;;;;;;;19.08;2.67;;;9.00;99.90;;;;;;7347152;32;20307;-56
2023/12/10 06:17:52;;;;;;;17.23;2.22;;;9.00;99.90;;;;;;7351614;32;20182;-55
2023/12/10 06:21:54;;;;;;;21.05;2.33;;;9.00;99.90;;;;;;7350847;32;20157;-54
2023/12/10 06:25:56;;;;;;;20.00;2.58;;;9.10;99.90;;;;;;7347342;32;20217;-54
2023/12/10 06:29:58;;;;;;;14.87;2.28;;;9.00;99.90;;;;;;7340119;32;20216;-55
2023/12/10 06:34:00;;;;;;;15.23;2.28;;;9.10;99.90;;;;;;7348052;32;20411;-56
2023/12/10 06:38:02;;;;;;;17.45;1.95;;;9.10;99.90;;;;;;7340074;32;20233;-55
2023/12/10 06:42:04;;;;;;;19.83;2.58;;;9.10;99.90;;;;;;7342796;32;20213;-54
2023/12/10 06:46:06;;;;;;;15.20;2.25;;;9.20;99.90;;;;;;7348877;32;20960;-54
2023/12/10 06:50:08;;;;;;;14.93;2.45;;;9.10;99.90;;;;;;7345830;32;20120;-54
2023/12/10 06:54:11;;;;;;;13.27;1.92;;;9.20;99.90;;;;;;7345934;32;20137;-54
2023/12/10 06:58:13;;;;;;;18.85;2.45;;;9.20;99.90;;;;;;7344828;32;22654;-54
2023/12/10 07:02:15;;;;;;;18.87;2.95;;;9.10;99.90;;;;;;7344598;32;20145;-54
2023/12/10 07:06:17;;;;;;;16.35;2.08;;;9.10;99.90;;;;;;7348901;32;20214;-54
2023/12/10 07:10:18;;;;;;;20.62;2.05;;;9.20;99.90;;;;;;7351515;32;20102;-56
2023/12/10 07:14:20;;;;;;;13.52;2.30;;;9.10;99.90;;;;;;7339854;32;20118;-55
2023/12/10 07:18:22;;;;;;;10.77;2.03;;;9.20;99.90;;;;;;7345621;32;20237;-55
2023/12/10 07:22:24;;;;;;;15.57;2.60;;;9.20;99.90;;;;;;7347059;32;20118;-55
2023/12/10 07:26:30;;;;;;;15.60;2.00;;;9.10;99.90;;;;;;7337276;32;20260;-56
2023/12/10 07:30:31;;;;;;;15.35;2.10;;;9.20;99.90;;;;;;7345186;32;20108;-57
2023/12/10 07:34:33;;;;;;;17.23;2.85;;;9.20;99.90;;;;;;7349267;32;20135;-57
2023/12/10 07:38:35;;;;;;;21.23;2.40;;;9.10;99.90;;;;;;7343196;32;20187;-56
2023/12/10 07:42:37;;;;;;;12.43;2.40;;;9.10;99.90;;;;;;7351635;32;20347;-56
2023/12/10 07:46:39;;;;;;;12.15;2.00;;;9.20;99.90;;;;;;7345438;32;20265;-57
2023/12/10 07:50:41;;;;;;;11.43;1.85;;;9.20;99.90;;;;;;7349371;32;20115;-57
2023/12/10 07:54:42;;;;;;;18.75;2.10;;;9.20;99.90;;;;;;7350394;32;20557;-57
2023/12/10 07:58:44;;;;;;;13.65;1.98;;;9.10;99.90;;;;;;7350500;32;20334;-56
2023/12/10 08:02:46;;;;;;;19.15;2.80;;;9.20;99.90;;;;;;7346632;32;20127;-56
2023/12/10 08:06:48;;;;;;;14.00;2.20;;;9.20;99.90;;;;;;7345028;32;20135;-56
2023/12/10 08:10:50;;;;;;;18.90;2.72;;;9.10;99.90;;;;;;7348399;32;20110;-56
2023/12/10 08:14:55;;;;;;;19.40;2.72;;;9.10;99.90;;;;;;7344110;32;20194;-57
2023/12/10 08:18:57;;;;;;;18.23;3.03;;;9.10;99.90;;;;;;7349103;32;20196;-57
2023/12/10 08:22:59;;;;;;;11.98;2.05;;;9.10;99.90;;;;;;7346311;32;20416;-58
2023/12/10 08:27:00;;;;;;;14.55;2.60;;;9.10;99.90;;;;;;7342359;32;20127;-57
2023/12/10 08:31:02;;;;;;;19.70;3.15;;;9.40;99.90;;;;;;7342456;32;20506;-56
2023/12/10 08:35:04;;;;;;;17.55;2.53;;;9.20;99.90;;;;;;7346221;32;20207;-57
2023/12/10 08:39:06;;;;;;;16.58;2.60;;;9.20;99.90;;;;;;7350807;32;20572;-56
2023/12/10 08:43:08;;;;;;;13.98;1.80;;;9.10;99.90;;;;;;7349528;32;20842;-57
2023/12/10 08:47:10;;;;;;;13.45;2.30;;;9.20;99.90;;;;;;7352800;32;20182;-57
2023/12/10 08:51:12;;;;;;;22.10;3.85;;;9.10;99.90;;;;;;7352126;32;20233;-57
2023/12/10 08:55:13;;;;;;;17.70;2.33;;;9.20;99.90;;;;;;7354132;32;20126;-56
2023/12/10 08:59:15;;;;;;;12.85;2.03;;;9.20;99.90;;;;;;7348746;32;20744;-56
2023/12/10 09:03:17;;;;;;;16.42;2.85;;;9.20;99.90;;;;;;7346537;32;20139;-58
2023/12/10 09:07:20;;;;;;;16.62;3.90;;;9.10;99.90;;;;;;7348091;32;20114;-56
2023/12/10 09:11:22;;;;;;;14.93;2.65;;;9.10;99.90;;;;;;7349521;32;20297;-56
2023/12/10 09:15:24;;;;;;;21.98;2.85;;;9.10;99.90;;;;;;7345433;32;20174;-55
2023/12/10 09:19:27;;;;;;;18.85;2.28;;;9.10;99.90;;;;;;7353721;32;20115;-56
2023/12/10 09:23:29;;;;;;;17.05;2.25;;;9.10;99.90;;;;;;7351549;32;20465;-58
2023/12/10 09:27:31;;;;;;;20.42;2.37;;;9.10;99.90;;;;;;7348273;32;20107;-56
2023/12/10 09:31:33;;;;;;;10.23;2.17;;;9.10;99.90;;;;;;7346227;32;20153;-56
2023/12/10 09:35:35;;;;;;;17.35;2.10;;;9.10;99.90;;;;;;7348472;32;20206;-56
2023/12/10 09:39:37;;;;;;;19.90;2.00;;;9.10;99.90;;;;;;7348659;32;20883;-60
2023/12/10 09:43:39;;;;;;;15.60;2.20;;;9.30;99.90;;;;;;7345763;32;20111;-56
2023/12/10 09:47:44;;;;;;;20.20;2.85;;;9.40;99.90;;;;;;7334902;32;20544;-57
2023/12/10 09:51:46;;;;;;;14.73;2.53;;;9.20;99.90;;;;;;7345141;32;20100;-57
2023/12/10 09:55:48;;;;;;;15.00;2.45;;;9.20;99.90;;;;;;7349651;32;21070;-56
2023/12/10 09:59:50;;;;;;;16.10;2.45;;;9.20;99.90;;;;;;7348080;32;20166;-56
2023/12/10 10:03:52;;;;;;;16.50;2.37;;;9.20;99.90;;;;;;7349499;32;20178;-56
2023/12/10 10:07:54;;;;;;;21.65;2.30;;;9.30;99.90;;;;;;7346268;32;20493;-56
2023/12/10 10:11:56;;;;;;;17.37;2.22;;;9.30;99.90;;;;;;7350738;32;20126;-56
2023/12/10 10:16:08;;;;;;;18.85;2.95;;;9.30;99.90;;;;;;7346514;32;20529;-57
2023/12/10 10:20:10;;;;;;;17.27;2.62;;;9.40;99.90;;;;;;7348636;32;20252;-57
2023/12/10 10:24:12;;;;;;;18.52;2.17;;;9.40;99.90;;;;;;7341634;32;20622;-56
2023/12/10 10:28:16;;;;;;;17.12;2.55;;;9.30;99.90;;;;;;7341731;32;20107;-56
2023/12/10 10:32:23;;;;;;;14.65;2.42;;;9.40;99.90;;;;;;7343585;32;20178;-57
2023/12/10 10:36:25;;;;;;;14.60;2.27;;;9.60;99.90;;;;;;7350997;32;20653;-56
2023/12/10 10:40:27;;;;;;;14.27;2.25;;;9.60;99.90;;;;;;7346659;32;20221;-56
2023/12/10 10:44:29;;;;;;;12.75;2.58;;;9.60;99.90;;;;;;7341496;32;20483;-56
2023/12/10 10:48:35;;;;;;;18.15;3.17;;;9.80;99.90;;;;;;7344345;32;20143;-56
2023/12/10 10:52:38;;;;;;;21.12;2.83;;;9.80;99.90;;;;;;7348430;32;20135;-57
2023/12/10 10:56:40;;;;;;;14.43;2.17;;;9.90;99.90;;;;;;7341644;32;20130;-56
2023/12/10 11:00:42;;;;;;;13.80;2.62;;;9.90;99.90;;;;;;7345501;32;20525;-56
2023/12/10 11:04:47;;;;;;;17.27;2.47;;;10.00;99.90;;;;;;7345647;32;21525;-56
2023/12/10 11:08:58;;;;;;;19.70;2.78;;;10.20;99.90;;;;;;7344555;32;20168;-56
2023/12/10 11:13:00;;;;;;;21.27;2.97;;;10.20;99.90;;;;;;7346788;32;20945;-56
2023/12/10 11:17:05;;;;;;;19.80;2.75;;;10.10;99.90;;;;;;7343713;32;20257;-56
2023/12/10 11:21:09;;;;;;;21.75;2.70;;;10.00;99.90;;;;;;7343004;32;20205;-58
2023/12/10 11:25:12;;;;;;;20.37;2.90;;;10.00;99.90;;;;;;7343383;32;20111;-56
2023/12/10 11:29:14;;;;;;;17.48;2.97;;;10.10;99.90;;;;;;7338744;32;20111;-56
2023/12/10 11:33:16;;;;;;;17.10;2.25;;;10.20;99.90;;;;;;7348207;32;20720;-56
2023/12/10 11:37:18;;;;;;;14.50;2.22;;;10.30;99.90;;;;;;7334445;32;20177;-56
2023/12/10 11:41:22;;;;;;;16.15;2.33;;;10.50;99.90;;;;;;7343112;32;20860;-56
2023/12/10 11:45:24;;;;;;;12.32;2.33;;;10.30;99.90;;;;;;7351101;32;20297;-56
2023/12/10 11:49:26;;;;;;;21.02;2.65;;;10.30;99.90;;;;;;7348635;32;20167;-56
2023/12/10 11:53:29;;;;;;;19.33;3.03;;;10.30;99.90;;;;;;7350312;32;20164;-56
2023/12/10 11:57:30;;;;;;;16.37;2.62;;;10.40;99.90;;;;;;7347654;32;20162;-56
2023/12/10 12:01:33;;;;;;;20.00;3.00;;;10.40;99.90;;;;;;7347790;32;20107;-56
2023/12/10 12:05:35;;;;;;;13.65;2.72;;;10.50;99.90;;;;;;7351602;32;20194;-56
2023/12/10 12:09:37;;;;;;;16.70;3.12;;;10.60;99.90;;;;;;7340037;32;20175;-57
2023/12/10 12:13:39;;;;;;;16.35;3.08;;;10.70;99.90;;;;;;7347269;32;20110;-55
2023/12/10 12:17:42;;;;;;;17.80;2.72;;;10.70;99.90;;;;;;7338575;32;20203;-56
2023/12/10 12:21:44;;;;;;;16.52;3.83;;;10.70;99.90;;;;;;7350514;32;20134;-56
2023/12/10 12:25:46;;;;;;;18.95;2.65;;;10.70;99.90;;;;;;7349158;32;20257;-57
2023/12/10 12:29:47;;;;;;;13.82;2.47;;;10.80;99.90;;;;;;7343697;32;20138;-56
2023/12/10 12:33:49;;;;;;;18.87;2.90;;;10.70;99.90;;;;;;7345108;32;20111;-56
2023/12/10 12:37:51;;;;;;;18.48;3.37;;;10.70;99.90;;;;;;7347711;32;20153;-56
2023/12/10 12:41:53;;;;;;;15.80;3.17;;;10.70;99.90;;;;;;7345259;32;20274;-56
2023/12/10 12:45:55;;;;;;;23.42;3.47;;;10.60;99.90;;;;;;7345058;32;20280;-55
2023/12/10 12:49:56;;;;;;;23.12;3.70;;;10.60;99.90;;;;;;7347748;32;20175;-56
2023/12/10 12:53:58;;;;;;;28.83;4.00;;;10.60;99.90;;;;;;7346554;32;20111;-57
2023/12/10 12:58:14;;;;;;;26.17;3.60;;;10.50;99.90;;;;;;7344278;32;21017;-57
2023/12/10 13:02:16;;;;;;;24.33;3.50;;;10.50;99.90;;;;;;7345923;32;20541;-56
2023/12/10 13:06:18;;;;;;;24.52;3.17;;;10.50;99.90;;;;;;7346067;32;20161;-57
2023/12/10 13:10:20;;;;;;;21.40;3.78;;;10.50;99.90;;;;;;7345301;32;20146;-56
2023/12/10 13:14:22;;;;;;;23.62;3.12;;;10.50;99.90;;;;;;7344588;32;20241;-56
2023/12/10 13:18:24;;;;;;;21.80;3.72;;;10.40;99.90;;;;;;7333782;32;20183;-57
2023/12/10 13:22:26;;;;;;;32.28;4.30;;;10.40;99.90;;;;;;7348962;32;20622;-57
2023/12/10 13:26:29;;;;;;;24.42;3.55;;;10.40;99.90;;;;;;7353171;32;20238;-57
2023/12/10 13:30:31;;;;;;;24.12;3.75;;;10.40;99.90;;;;;;7351400;32;20144;-57
2023/12/10 13:34:32;;;;;;;27.60;3.78;;;10.40;99.90;;;;;;7353953;32;20119;-56
2023/12/10 13:38:34;;;;;;;24.83;4.25;;;10.40;99.90;;;;;;7351249;32;21310;-56
2023/12/10 13:42:36;;;;;;;19.00;3.60;;;10.40;99.90;;;;;;7349694;32;20299;-61
2023/12/10 13:46:38;;;;;;;28.75;3.87;;;10.50;99.90;;;;;;7349914;32;20689;-56
2023/12/10 13:50:41;;;;;;;28.85;3.87;;;10.70;99.90;;;;;;7352646;32;20295;-57
2023/12/10 13:54:43;;;;;;;20.83;3.30;;;10.50;99.90;;;;;;7347358;32;20201;-58
2023/12/10 13:58:45;;;;;;;24.50;3.87;;;10.40;99.90;;;;;;7349226;32;20174;-57
2023/12/10 14:02:47;;;;;;;28.12;3.55;;;10.40;99.90;;;;;;7351621;32;20092;-57
2023/12/10 14:06:50;;;;;;;23.58;4.10;;;10.40;99.90;;;;;;7351305;32;20118;-57
2023/12/10 14:10:53;;;;;;;20.90;3.55;;;10.40;99.90;;;;;;7345948;32;20125;-57
2023/12/10 14:14:55;;;;;;;32.90;3.80;;;10.30;99.90;;;;;;7350070;32;20118;-55
2023/12/10 14:18:56;;;;;;;29.42;3.30;;;10.20;99.90;;;;;;7348774;32;20287;-55
2023/12/10 14:22:58;;;;;;;22.70;4.03;;;10.20;99.90;;;;;;7345710;32;20183;-57
2023/12/10 14:27:00;;;;;;;25.90;3.80;;;10.10;99.90;;;;;;7349078;32;20333;-57
2023/12/10 14:31:02;;;;;;;25.80;3.67;;;10.20;99.90;;;;;;7347115;32;20103;-58
2023/12/10 14:35:05;;;;;;;20.25;3.78;;;10.20;99.90;;;;;;7340840;32;20267;-56
2023/12/10 14:39:06;;;;;;;21.33;3.62;;;10.10;99.90;;;;;;7344490;32;20497;-56
2023/12/10 14:43:08;;;;;;;25.70;3.78;;;10.00;99.90;;;;;;7348313;32;20142;-58
2023/12/10 14:47:10;;;;;;;17.15;3.42;;;10.10;99.90;;;;;;7347263;32;20125;-58
2023/12/10 14:51:12;;;;;;;29.45;3.67;;;10.00;99.90;;;;;;7348474;32;20096;-58
2023/12/10 14:55:14;;;;;;;21.95;3.47;;;10.00;99.90;;;;;;7347296;32;20194;-58
2023/12/10 14:59:21;;;;;;;15.50;3.15;;;10.00;99.90;;;;;;7350589;32;20221;-58
2023/12/10 15:03:23;;;;;;;23.67;3.53;;;10.00;99.90;;;;;;7352223;32;20122;-58
2023/12/10 15:07:25;;;;;;;20.80;3.53;;;10.00;99.90;;;;;;7350867;32;20501;-56
2023/12/10 15:11:27;;;;;;;21.45;3.05;;;10.00;99.90;;;;;;7353672;32;20185;-56
2023/12/10 15:15:28;;;;;;;18.08;3.08;;;10.10;99.90;;;;;;7349191;32;20148;-57
2023/12/10 15:19:30;;;;;;;21.35;3.12;;;10.00;99.90;;;;;;7351719;32;20186;-57
2023/12/10 15:23:32;;;;;;;20.92;3.08;;;10.00;99.90;;;;;;7349599;32;20532;-56
2023/12/10 15:27:34;;;;;;;21.00;3.83;;;10.00;99.90;;;;;;7348443;32;20317;-58
2023/12/10 15:31:36;;;;;;;24.67;4.40;;;10.00;99.90;;;;;;7350557;32;20281;-57
2023/12/10 15:35:38;;;;;;;23.12;3.12;;;10.00;99.90;;;;;;7350618;32;20118;-58
2023/12/10 15:39:39;;;;;;;15.43;2.85;;;10.00;99.90;;;;;;7352679;32;20474;-64
2023/12/10 15:43:41;;;;;;;16.85;2.65;;;10.20;99.90;;;;;;7351826;32;20182;-64
2023/12/10 15:47:43;;;;;;;16.00;2.55;;;10.30;99.90;;;;;;7351449;32;20532;-63
2023/12/10 15:51:45;;;;;;;17.10;3.10;;;10.30;99.90;;;;;;7345001;32;20164;-62
2023/12/10 15:55:47;;;;;;;15.82;2.65;;;10.30;99.90;;;;;;7343753;32;20714;-56
2023/12/10 15:59:49;;;;;;;14.60;2.78;;;10.40;99.90;;;;;;7345686;32;20422;-57
2023/12/10 16:03:50;;;;;;;21.65;2.70;;;10.30;99.90;;;;;;7339814;32;20639;-56
2023/12/10 16:07:52;;;;;;;16.95;2.78;;;10.10;99.90;;;;;;7346941;32;20115;-56
2023/12/10 16:11:55;;;;;;;14.85;3.12;;;10.10;99.90;;;;;;7340427;32;20113;-55
2023/12/10 16:15:56;;;;;;;16.33;2.83;;;10.00;99.90;;;;;;7347529;32;20471;-56
2023/12/10 16:19:58;;;;;;;9.57;2.05;;;10.00;99.90;;;;;;7348946;32;20125;-56
2023/12/10 16:24:00;;;;;;;15.68;2.40;;;10.00;99.90;;;;;;7346925;32;20100;-56
2023/12/10 16:28:02;;;;;;;15.05;2.95;;;9.90;99.90;;;;;;7339526;32;20102;-57
2023/12/10 16:32:04;;;;;;;15.45;2.70;;;9.90;99.90;;;;;;7345599;32;20122;-56
2023/12/10 16:36:07;;;;;;;15.25;2.78;;;9.90;99.90;;;;;;7340628;32;20250;-57
2023/12/10 16:40:09;;;;;;;12.93;2.58;;;9.90;99.90;;;;;;7346301;32;20111;-57
2023/12/10 16:44:11;;;;;;;10.60;2.33;;;9.80;99.90;;;;;;7341465;32;20449;-56
2023/12/10 16:48:13;;;;;;;20.05;2.75;;;9.80;99.90;;;;;;7346042;32;20587;-55
2023/12/10 16:52:15;;;;;;;18.65;2.92;;;9.80;99.90;;;;;;7347505;32;20129;-56
2023/12/10 16:56:17;;;;;;;12.63;2.40;;;9.80;99.90;;;;;;7348145;32;20193;-56
2023/12/10 17:00:19;;;;;;;15.70;2.72;;;9.70;99.90;;;;;;7346774;32;20240;-56
2023/12/10 17:04:20;;;;;;;11.55;1.80;;;9.70;99.90;;;;;;7345546;32;20099;-55
2023/12/10 17:08:23;;;;;;;12.63;2.28;;;9.70;99.90;;;;;;7350438;32;20183;-58
2023/12/10 17:12:25;;;;;;;12.23;1.90;;;9.70;99.90;;;;;;7354055;32;20142;-58
2023/12/10 17:16:27;;;;;;;13.48;1.85;;;9.70;99.90;;;;;;7343087;32;20267;-57
2023/12/10 17:20:29;;;;;;;14.73;2.08;;;9.70;99.90;;;;;;7344895;32;20291;-57
2023/12/10 17:24:31;;;;;;;12.75;2.08;;;9.60;99.90;;;;;;7349707;32;20224;-55
2023/12/10 17:28:34;;;;;;;13.93;1.95;;;9.70;99.90;;;;;;7350913;32;20155;-55
2023/12/10 17:32:36;;;;;;;14.43;1.87;;;9.60;99.90;;;;;;7350481;32;20130;-58
2023/12/10 17:36:38;;;;;;;13.93;2.00;;;9.60;99.90;;;;;;7346918;32;20289;-57
2023/12/10 17:40:39;;;;;;;12.65;1.92;;;9.60;99.90;;;;;;7344757;32;20095;-58
2023/12/10 17:44:43;;;;;;;12.30;2.08;;;9.50;99.90;;;;;;7340555;32;20251;-56
2023/12/10 17:48:57;;;;;;;9.85;1.77;;;9.40;99.90;;;;;;7342941;32;20247;-58
2023/12/10 17:52:59;;;;;;;11.77;1.80;;;9.30;99.90;;;;;;7341401;32;20124;-56
2023/12/10 17:57:01;;;;;;;17.00;2.33;;;9.20;99.90;;;;;;7346000;32;20242;-56
2023/12/10 18:01:03;;;;;;;9.18;1.67;;;9.10;99.90;;;;;;7348982;32;20145;-56
2023/12/10 18:05:06;;;;;;;10.48;1.85;;;8.90;99.90;;;;;;7350151;32;20125;-56
2023/12/10 18:09:08;;;;;;;16.55;3.15;;;8.80;99.90;;;;;;7352104;32;20202;-57
2023/12/10 18:13:10;;;;;;;15.85;2.33;;;8.70;99.90;;;;;;7351820;32;20099;-57
2023/12/10 18:17:12;;;;;;;13.27;2.00;;;8.60;99.90;;;;;;7344282;32;20129;-56
2023/12/10 18:21:14;;;;;;;16.00;1.73;;;8.50;99.90;;;;;;7346392;32;20207;-58
2023/12/10 18:25:16;;;;;;;13.23;2.08;;;8.30;99.90;;;;;;7348621;32;20287;-56
2023/12/10 18:29:18;;;;;;;14.90;2.05;;;8.20;99.90;;;;;;7343901;32;20553;-57
2023/12/10 18:33:21;;;;;;;19.35;2.33;;;8.10;99.90;;;;;;7341410;32;20871;-56
2023/12/10 18:37:23;;;;;;;7.72;1.92;;;8.00;99.90;;;;;;7339949;32;20223;-55
2023/12/10 18:41:25;;;;;;;13.18;1.60;;;8.00;99.90;;;;;;7345214;32;20116;-55
2023/12/10 18:45:27;;;;;;;13.48;2.08;;;7.90;99.90;;;;;;7349652;32;20557;-56
2023/12/10 18:49:29;;;;;;;11.43;1.58;;;7.90;99.90;;;;;;7350742;32;20230;-56
2023/12/10 18:53:31;;;;;;;13.65;2.65;;;7.90;99.90;;;;;;7350015;32;20726;-56
2023/12/10 18:57:32;;;;;;;14.55;2.60;;;7.90;99.90;;;;;;7347847;32;20665;-55
2023/12/10 19:01:35;;;;;;;11.38;1.70;;;8.00;99.90;;;;;;7342598;32;20210;-54
2023/12/10 19:05:37;;;;;;;11.65;1.85;;;8.00;99.90;;;;;;7345983;32;20107;-58
2023/12/10 19:09:39;;;;;;;10.38;1.80;;;8.00;99.90;;;;;;7339196;32;20099;-57
2023/12/10 19:13:41;;;;;;;12.60;1.60;;;8.00;99.90;;;;;;7352920;32;20199;-56
2023/12/10 19:17:43;;;;;;;17.67;2.97;;;8.00;99.90;;;;;;7339318;32;20104;-56
2023/12/10 19:21:45;;;;;;;11.12;1.58;;;8.00;99.90;;;;;;7344842;32;20149;-56
2023/12/10 19:25:47;;;;;;;10.05;2.05;;;8.00;99.90;;;;;;7346864;32;20177;-57
2023/12/10 19:29:49;;;;;;;16.20;2.55;;;7.90;99.90;;;;;;7342575;32;20194;-57
2023/12/10 19:33:52;;;;;;;11.48;2.95;;;8.00;99.90;;;;;;7345068;32;20202;-57
2023/12/10 19:37:54;;;;;;;13.10;1.90;;;8.00;99.90;;;;;;7345610;32;20150;-56
2023/12/10 19:41:55;;;;;;;12.70;2.15;;;8.10;99.90;;;;;;7350726;32;20102;-56
2023/12/10 19:45:57;;;;;;;8.23;1.62;;;8.20;99.90;;;;;;7346094;32;20092;-55
2023/12/10 19:49:59;;;;;;;10.48;1.27;;;8.30;99.90;;;;;;7344655;32;20225;-58
2023/12/10 19:54:01;;;;;;;10.23;2.17;;;8.40;99.90;;;;;;7345583;32;20552;-58
2023/12/10 19:58:04;;;;;;;9.73;1.48;;;8.50;99.90;;;;;;7343311;32;20095;-57
2023/12/10 20:02:06;;;;;;;4.07;1.30;;;8.60;99.90;;;;;;7346705;32;20103;-56
2023/12/10 20:06:09;;;;;;;6.60;1.30;;;8.70;99.90;;;;;;7352470;32;20134;-57
2023/12/10 20:10:11;;;;;;;4.80;0.90;;;8.80;99.90;;;;;;7335428;32;20458;-56
2023/12/10 20:14:12;;;;;;;4.82;0.88;;;9.00;99.90;;;;;;7342468;32;20220;-58
2023/12/10 20:18:17;;;;;;;4.07;0.90;;;9.30;99.90;;;;;;7341999;32;20263;-57
2023/12/10 20:22:19;;;;;;;3.30;0.70;;;9.30;99.90;;;;;;7339737;32;20601;-56
2023/12/10 20:26:20;;;;;;;3.30;0.77;;;9.40;99.90;;;;;;7344455;32;20095;-56
2023/12/10 20:30:33;;;;;;;3.35;0.60;;;9.50;99.90;;;;;;7345235;32;20091;-56
2023/12/10 20:34:34;;;;;;;3.85;0.80;;;9.60;99.90;;;;;;7345046;32;20096;-57
2023/12/10 20:38:36;;;;;;;3.17;0.80;;;9.70;99.90;;;;;;7341698;32;20127;-56
2023/12/10 20:42:38;;;;;;;3.35;0.80;;;9.80;99.90;;;;;;7344156;32;20847;-57
2023/12/10 20:46:40;;;;;;;2.47;0.57;;;9.90;99.90;;;;;;7337338;32;20235;-56
2023/12/10 20:50:42;;;;;;;4.43;0.70;;;10.00;99.90;;;;;;7340077;32;20174;-63
2023/12/10 20:54:45;;;;;;;2.87;0.60;;;10.20;99.90;;;;;;7340311;32;20123;-59
2023/12/10 20:58:47;;;;;;;4.15;0.60;;;10.60;99.90;;;;;;7344994;32;20103;-62